Time;durP1;ratioP1;P1;durP2;ratioP2;P2;SDS_P1;SDS_P2;PMS_P1;PMS_P2;Temp;Humidity;BMP_temperature;BMP_pressure;BME280_temperature;BME280_humidity;BME280_pressure;Samples;Min_cycle;Max_cycle;Signal;HPM_P1;HPM_P2
2023/03/22 00:01:10;;;;;;;3.05;1.90;;;;;;;11.70;98.85;100250.66;5039667;28;20024;-57
2023/03/22 00:03:35;;;;;;;2.58;1.33;;;;;;;11.64;99.77;100249.41;5034985;28;20040;-58
2023/03/22 00:06:00;;;;;;;2.65;1.80;;;;;;;11.71;99.05;100244.13;5044386;28;20030;-57
2023/03/22 00:08:26;;;;;;;2.08;1.40;;;;;;;11.66;99.34;100233.66;5032183;28;20061;-59
2023/03/22 00:10:52;;;;;;;3.95;1.92;;;;;;;11.60;100.00;100238.59;5036703;28;20128;-58
2023/03/22 00:13:17;;;;;;;1.63;1.23;;;;;;;11.71;99.75;100228.69;5042286;28;20526;-59
2023/03/22 00:15:47;;;;;;;4.38;2.00;;;;;;;11.66;99.14;100225.56;5039540;28;20434;-59
2023/03/22 00:18:17;;;;;;;4.32;1.98;;;;;;;11.65;99.74;100211.28;5041009;28;20029;-60
2023/03/22 00:20:52;;;;;;;3.28;2.20;;;;;;;11.71;99.13;100223.28;5037415;28;20037;-58
2023/03/22 00:23:18;;;;;;;3.28;1.73;;;;;;;11.62;99.49;100219.34;5050993;28;20029;-60
2023/03/22 00:25:44;;;;;;;3.05;1.48;;;;;;;11.69;98.92;100217.50;5049965;28;20506;-60
2023/03/22 00:28:11;;;;;;;2.88;1.52;;;;;;;11.63;99.43;100227.03;5049027;28;20055;-57
2023/03/22 00:30:37;;;;;;;3.13;1.60;;;;;;;11.63;99.28;100216.25;5049751;28;20491;-60
2023/03/22 00:33:03;;;;;;;6.05;1.60;;;;;;;11.56;99.52;100210.03;5048636;28;20029;-60
2023/03/22 00:35:29;;;;;;;2.38;1.83;;;;;;;11.67;98.32;100200.16;5044953;28;20025;-60
2023/03/22 00:37:54;;;;;;;2.78;1.73;;;;;;;11.63;98.70;100194.69;5050163;28;20391;-57
2023/03/22 00:40:21;;;;;;;3.72;2.03;;;;;;;11.66;98.69;100198.59;5062407;28;20482;-56
2023/03/22 00:42:48;;;;;;;1.77;1.48;;;;;;;11.67;97.89;100197.47;5050794;28;20032;-57
2023/03/22 00:45:14;;;;;;;3.90;1.45;;;;;;;11.52;99.69;100201.13;5060318;28;20043;-52
2023/03/22 00:47:39;;;;;;;1.63;1.25;;;;;;;11.51;99.64;100200.38;5068215;28;20792;-57
2023/03/22 00:50:06;;;;;;;1.85;1.48;;;;;;;11.53;100.00;100190.00;5055890;28;20039;-57
2023/03/22 00:52:32;;;;;;;2.50;1.40;;;;;;;11.60;99.62;100197.34;5051808;28;20049;-60
2023/03/22 00:54:58;;;;;;;3.88;1.75;;;;;;;11.64;99.07;100196.25;5041242;28;20063;-57
2023/03/22 00:57:23;;;;;;;3.35;1.65;;;;;;;11.54;98.82;100201.53;5040092;28;20462;-58
2023/03/22 00:59:51;;;;;;;2.47;1.23;;;;;;;11.60;99.23;100200.06;5044955;28;20083;-55
2023/03/22 01:02:18;;;;;;;2.13;1.60;;;;;;;11.63;98.86;100191.97;5044289;28;20024;-60
2023/03/22 01:04:45;;;;;;;3.65;1.70;;;;;;;11.65;98.72;100194.34;5061916;28;20033;-59
2023/03/22 01:07:16;;;;;;;4.65;2.03;;;;;;;11.69;98.46;100182.44;5031735;28;20109;-57
2023/03/22 01:09:49;;;;;;;4.70;1.95;;;;;;;11.56;98.87;100183.84;5045583;28;20041;-58
2023/03/22 01:12:15;;;;;;;1.80;1.45;;;;;;;11.55;99.70;100176.13;5042081;28;20034;-60
2023/03/22 01:14:41;;;;;;;2.85;1.88;;;;;;;11.59;99.35;100185.03;5040112;28;20017;-59
2023/03/22 01:17:07;;;;;;;3.88;1.98;;;;;;;11.38;100.00;100177.50;5042019;28;20029;-60
2023/03/22 01:19:34;;;;;;;1.35;1.05;;;;;;;11.38;100.00;100172.13;5044390;28;20191;-60
2023/03/22 01:22:00;;;;;;;4.47;2.55;;;;;;;11.60;99.93;100167.69;5031992;28;20071;-55
2023/03/22 01:24:26;;;;;;;3.10;1.98;;;;;;;11.55;99.02;100154.56;5045167;28;20040;-60
2023/03/22 01:26:51;;;;;;;2.38;1.73;;;;;;;11.69;98.93;100160.84;5035244;28;20064;-56
2023/03/22 01:29:17;;;;;;;2.88;1.52;;;;;;;11.82;98.28;100160.56;5044038;28;20120;-57
2023/03/22 01:31:43;;;;;;;2.88;1.38;;;;;;;11.77;98.20;100156.28;5044494;28;20041;-60
2023/03/22 01:34:10;;;;;;;2.38;2.00;;;;;;;11.69;98.70;100150.06;5049099;28;20435;-60
2023/03/22 01:36:35;;;;;;;4.00;1.52;;;;;;;11.73;98.22;100155.47;5046279;28;20095;-60
2023/03/22 01:39:01;;;;;;;2.72;1.65;;;;;;;11.75;98.80;100137.00;5048854;28;20119;-58
2023/03/22 01:41:28;;;;;;;2.65;1.55;;;;;;;11.75;98.60;100142.41;5062511;28;20093;-57
2023/03/22 01:44:11;;;;;;;2.10;1.33;;;;;;;11.56;99.26;100138.00;5057998;28;20016;-59
2023/03/22 01:46:41;;;;;;;3.17;1.98;;;;;;;11.64;98.70;100136.91;5068298;28;20483;-57
2023/03/22 01:49:21;;;;;;;2.03;1.30;;;;;;;11.67;99.24;100133.47;5055862;28;20634;-57
2023/03/22 01:51:50;;;;;;;3.05;1.67;;;;;;;11.55;99.04;100130.28;5041193;28;20041;-58
2023/03/22 01:54:46;;;;;;;2.40;1.70;;;;;;;11.47;99.71;100124.06;5041315;28;20021;-56
2023/03/22 01:57:26;;;;;;;4.68;2.15;;;;;;;11.67;98.99;100119.25;5052419;28;20032;-58
2023/03/22 01:59:53;;;;;;;2.15;1.48;;;;;;;11.67;99.28;100114.59;5037491;28;20552;-59
2023/03/22 02:02:47;;;;;;;;;;;;;;;11.73;98.58;100106.94;5044024;28;20391;-60
2023/03/22 02:05:24;;;;;;;4.72;2.33;;;;;;;11.79;98.74;100105.44;5054221;28;20281;-59
2023/03/22 02:07:52;;;;;;;2.50;1.67;;;;;;;11.61;98.80;100110.66;5048470;28;20030;-59
2023/03/22 02:10:23;;;;;;;4.07;1.63;;;;;;;11.61;99.12;100109.91;5057680;28;20442;-59
2023/03/22 02:12:58;;;;;;;5.38;2.67;;;;;;;11.70;98.88;100103.06;5042330;28;20037;-58
2023/03/22 02:16:17;;;;;;;2.40;1.60;;;;;;;11.84;98.24;100102.41;5052719;28;20377;-58
2023/03/22 02:19:07;;;;;;;3.08;2.13;;;;;;;11.69;98.46;100098.81;5049198;28;20037;-60
2023/03/22 02:22:27;;;;;;;4.90;1.67;;;;;;;11.64;98.58;100098.38;5048317;28;20029;-58
2023/03/22 02:24:58;;;;;;;2.67;1.75;;;;;;;11.63;98.71;100094.88;4989323;28;20049;-60
2023/03/22 02:27:42;;;;;;;;;;;;;;;11.68;99.53;100104.59;4970420;28;20033;-57
2023/03/22 02:30:26;;;;;;;2.13;1.75;;;;;;;11.66;98.96;100091.50;5039539;28;19912;-57
2023/03/22 02:33:35;;;;;;;4.68;1.80;;;;;;;11.76;98.34;100087.31;5068701;28;20063;-55
2023/03/22 02:36:07;;;;;;;2.42;1.52;;;;;;;11.68;98.72;100085.72;5067253;28;20056;-56
2023/03/22 02:38:53;;;;;;;2.22;2.00;;;;;;;11.64;99.07;100082.19;5058143;28;20043;-51
2023/03/22 02:41:50;;;;;;;2.38;1.42;;;;;;;11.60;98.52;100082.16;5062079;28;20028;-58
2023/03/22 02:44:37;;;;;;;3.42;2.33;;;;;;;11.60;99.55;100081.38;5044296;28;20034;-56
2023/03/22 02:47:28;;;;;;;1.80;1.38;;;;;;;11.46;99.41;100075.88;5063437;28;20078;-59
2023/03/22 02:50:06;;;;;;;1.65;1.42;;;;;;;11.57;99.91;100072.16;5052666;28;20032;-57
2023/03/22 02:52:39;;;;;;;2.30;1.50;;;;;;;11.73;98.91;100069.94;5055858;28;20039;-56
2023/03/22 02:55:08;;;;;;;2.42;1.42;;;;;;;11.75;99.21;100073.03;5053694;28;20033;-56
2023/03/22 02:57:58;;;;;;;3.28;1.77;;;;;;;11.76;98.56;100071.13;5063624;28;20060;-56
2023/03/22 03:00:26;;;;;;;2.20;1.30;;;;;;;11.71;98.30;100069.53;5054438;28;20041;-60
2023/03/22 03:02:55;;;;;;;2.92;1.52;;;;;;;11.76;98.44;100063.03;5051773;28;20020;-57
2023/03/22 03:05:23;;;;;;;4.10;2.20;;;;;;;11.74;98.54;100066.13;5050311;28;20110;-56
2023/03/22 03:07:56;;;;;;;7.35;1.88;;;;;;;11.60;98.44;100066.00;5053236;28;20432;-59
2023/03/22 03:10:23;;;;;;;2.53;1.40;;;;;;;11.62;98.92;100054.81;5055539;28;20028;-55
2023/03/22 03:12:48;;;;;;;1.40;1.30;;;;;;;11.53;99.28;100054.38;5061938;28;20020;-59
2023/03/22 03:15:20;;;;;;;4.63;2.17;;;;;;;11.48;100.00;100057.41;5066955;28;20127;-56
2023/03/22 03:18:28;;;;;;;3.25;1.63;;;;;;;11.43;99.93;100049.69;5065707;28;20063;-54
2023/03/22 03:21:01;;;;;;;2.67;2.25;;;;;;;11.67;99.34;100049.88;5034951;28;20106;-56
2023/03/22 03:23:50;;;;;;;2.75;1.90;;;;;;;11.71;97.87;100044.53;5071439;28;20041;-58
2023/03/22 03:27:01;;;;;;;6.47;2.10;;;;;;;11.77;97.83;100045.69;5036903;28;20338;-59
2023/03/22 03:29:54;;;;;;;1.60;1.27;;;;;;;11.73;98.36;100034.09;5048958;28;20028;-59
2023/03/22 03:32:34;;;;;;;1.88;1.13;;;;;;;11.72;97.66;100040.66;5052241;28;20037;-59
2023/03/22 03:35:26;;;;;;;3.92;2.10;;;;;;;11.69;97.91;100036.03;5041825;28;20050;-60
2023/03/22 03:38:08;;;;;;;3.42;1.75;;;;;;;11.59;98.46;100036.72;5054663;28;20036;-56
2023/03/22 03:40:43;;;;;;;3.45;2.08;;;;;;;11.46;98.47;100032.75;5057753;28;20090;-60
2023/03/22 03:43:09;;;;;;;2.45;1.70;;;;;;;11.39;99.40;100052.38;5048487;28;20033;-55
2023/03/22 03:45:36;;;;;;;4.28;1.92;;;;;;;11.41;99.56;100027.72;5046665;28;20036;-57
2023/03/22 03:48:07;;;;;;;2.45;1.50;;;;;;;11.38;99.93;100033.88;5043164;28;20029;-57
2023/03/22 03:50:33;;;;;;;1.67;1.47;;;;;;;11.53;99.25;100032.81;5050410;28;20045;-57
2023/03/22 03:52:59;;;;;;;4.35;2.33;;;;;;;11.47;99.02;100026.22;5043857;28;20033;-59
2023/03/22 03:55:26;;;;;;;2.50;1.55;;;;;;;11.61;98.41;100034.41;5041080;28;20033;-58
2023/03/22 03:57:52;;;;;;;3.05;1.90;;;;;;;11.59;98.54;100037.47;5036642;28;20041;-59
2023/03/22 04:00:18;;;;;;;2.67;1.25;;;;;;;11.72;97.85;100027.16;5035356;28;20569;-59
2023/03/22 04:03:03;;;;;;;2.50;1.48;;;;;;;11.77;97.50;100024.88;5042127;28;20036;-59
2023/03/22 04:05:55;;;;;;;2.55;1.73;;;;;;;11.81;97.22;100027.59;5020364;23;20049;-55
2023/03/22 04:08:21;;;;;;;3.35;2.10;;;;;;;11.85;97.50;100033.00;5026387;28;20025;-52
2023/03/22 04:10:50;;;;;;;4.57;1.77;;;;;;;11.80;97.40;100026.06;5029544;28;20518;-55
2023/03/22 04:13:20;;;;;;;1.80;1.48;;;;;;;11.90;97.01;100028.03;5021770;28;20034;-53
2023/03/22 04:15:52;;;;;;;1.83;1.45;;;;;;;11.88;97.11;100032.25;5026211;28;20070;-56
2023/03/22 04:18:18;;;;;;;;;;;;;;;11.85;96.62;100022.22;5016224;28;20034;-53
2023/03/22 04:20:45;;;;;;;3.15;1.77;;;;;;;11.76;97.00;100019.88;5012715;28;19924;-56
2023/03/22 04:23:14;;;;;;;4.60;1.73;;;;;;;11.80;97.38;100026.06;5017746;28;20025;-49
2023/03/22 04:25:49;;;;;;;1.63;1.10;;;;;;;11.83;97.18;100024.53;5020108;28;20064;-48
2023/03/22 04:28:20;;;;;;;1.55;1.42;;;;;;;11.82;97.29;100015.66;5004224;28;20032;-54
2023/03/22 04:30:50;;;;;;;2.47;1.45;;;;;;;11.87;96.51;100019.91;5009948;28;20033;-54
2023/03/22 04:33:16;;;;;;;2.97;1.40;;;;;;;11.90;96.46;100033.44;5021292;28;20132;-50
2023/03/22 04:36:04;;;;;;;3.60;1.77;;;;;;;11.80;97.75;100020.66;5022491;28;20029;-52
2023/03/22 04:38:38;;;;;;;12.02;1.40;;;;;;;11.83;97.50;100024.53;5018386;28;20105;-53
2023/03/22 04:41:05;;;;;;;1.33;0.93;;;;;;;11.92;96.44;100022.25;5018247;28;20030;-52
2023/03/22 04:43:38;;;;;;;;;;;;;;;11.90;96.89;100013.78;5019611;28;20473;-53
2023/03/22 04:46:11;;;;;;;2.65;1.65;;;;;;;11.90;96.37;100019.94;5006526;28;19913;-52
2023/03/22 04:48:42;;;;;;;3.08;1.20;;;;;;;11.85;96.86;100016.81;5010880;28;20092;-52
2023/03/22 04:51:10;;;;;;;1.55;1.33;;;;;;;12.06;95.77;100017.69;4995474;28;20021;-52
2023/03/22 04:53:42;;;;;;;2.80;1.50;;;;;;;12.07;95.38;100016.53;5022976;28;20069;-52
2023/03/22 04:56:12;;;;;;;1.40;1.05;;;;;;;11.95;95.36;100014.19;5028325;28;20037;-52
2023/03/22 04:58:39;;;;;;;1.95;1.70;;;;;;;11.95;96.14;100013.41;5024090;28;20029;-54
2023/03/22 05:01:07;;;;;;;2.95;1.48;;;;;;;11.89;95.54;100015.69;5021424;28;20460;-55
2023/03/22 05:03:36;;;;;;;7.10;1.65;;;;;;;11.85;96.16;100012.19;5001787;28;20030;-57
2023/03/22 05:06:05;;;;;;;2.10;1.20;;;;;;;11.85;96.07;100006.03;5009603;28;20032;-50
2023/03/22 05:08:39;;;;;;;2.00;1.27;;;;;;;11.98;95.37;99999.16;5015640;28;20030;-52
2023/03/22 05:11:12;;;;;;;2.67;1.38;;;;;;;12.03;94.49;99999.56;5017180;28;20036;-54
2023/03/22 05:13:38;;;;;;;3.30;1.33;;;;;;;11.98;95.07;100005.31;5023799;28;20116;-51
2023/03/22 05:16:05;;;;;;;1.40;1.30;;;;;;;11.98;95.14;100007.25;5017419;28;20025;-50
2023/03/22 05:18:44;;;;;;;3.25;1.35;;;;;;;11.80;95.15;99991.00;5010772;28;20037;-55
2023/03/22 05:21:15;;;;;;;1.90;1.17;;;;;;;11.87;95.61;99999.09;5011638;28;20034;-49
2023/03/22 05:23:42;;;;;;;3.15;1.92;;;;;;;11.87;95.02;99995.63;5014383;28;20029;-51
2023/03/22 05:26:14;;;;;;;1.92;1.42;;;;;;;11.90;95.43;99992.19;5020325;28;20034;-50
2023/03/22 05:28:41;;;;;;;1.98;1.58;;;;;;;11.86;95.60;99988.69;5013664;28;20091;-51
2023/03/22 05:31:15;;;;;;;2.67;1.27;;;;;;;11.95;95.12;99989.88;5024101;28;20091;-50
2023/03/22 05:33:51;;;;;;;4.32;1.63;;;;;;;12.02;94.86;99995.31;5020319;28;20037;-51
2023/03/22 05:36:21;;;;;;;1.75;1.33;;;;;;;12.03;94.15;100006.88;5022398;28;20381;-50
2023/03/22 05:39:06;;;;;;;3.15;1.58;;;;;;;12.03;93.93;99996.09;5025659;28;20472;-51
2023/03/22 05:41:32;;;;;;;2.17;1.08;;;;;;;11.98;94.20;100007.25;5018907;28;20095;-53
2023/03/22 05:43:59;;;;;;;1.20;1.10;;;;;;;12.05;94.60;100010.75;5025647;28;21829;-50
2023/03/22 05:46:25;;;;;;;2.42;1.27;;;;;;;12.14;93.82;100008.47;5028356;28;20480;-50
2023/03/22 05:49:11;;;;;;;3.58;1.30;;;;;;;12.11;93.44;100009.22;5027959;28;20052;-48
2023/03/22 05:51:40;;;;;;;3.22;1.27;;;;;;;12.03;94.13;100007.66;5011940;28;20401;-52
2023/03/22 05:54:07;;;;;;;0.77;0.55;;;;;;;12.07;94.67;100002.28;5027873;28;20087;-51
2023/03/22 05:56:39;;;;;;;1.60;0.82;;;;;;;12.24;93.50;100015.81;5017142;28;20030;-55
2023/03/22 05:59:05;;;;;;;3.40;1.40;;;;;;;12.16;93.32;100008.06;5008932;28;20076;-55
2023/03/22 06:01:32;;;;;;;1.33;0.68;;;;;;;12.07;93.64;100007.66;5019824;28;20506;-51
2023/03/22 06:04:27;;;;;;;1.00;0.77;;;;;;;11.96;93.77;100009.56;5011464;28;20041;-50
2023/03/22 06:07:01;;;;;;;2.33;1.13;;;;;;;12.06;93.98;100017.69;5015633;28;20036;-53
2023/03/22 06:09:49;;;;;;;1.30;1.13;;;;;;;12.01;94.14;100007.25;5014283;28;20028;-48
2023/03/22 06:12:23;;;;;;;1.27;1.05;;;;;;;12.09;93.78;100008.06;5011294;28;20033;-52
2023/03/22 06:14:52;;;;;;;3.92;1.48;;;;;;;12.32;92.63;100014.69;5021321;28;20083;-53
2023/03/22 06:17:37;;;;;;;1.85;1.17;;;;;;;12.16;92.87;100014.25;5019398;28;20451;-51
2023/03/22 06:20:09;;;;;;;1.95;1.13;;;;;;;12.16;93.95;100010.78;5020752;28;20065;-52
2023/03/22 06:22:56;;;;;;;1.85;1.15;;;;;;;12.20;93.46;100006.94;5027803;28;20057;-50
2023/03/22 06:25:22;;;;;;;1.95;1.30;;;;;;;12.29;93.03;100006.59;4990161;28;20041;-53
2023/03/22 06:27:49;;;;;;;2.55;1.20;;;;;;;12.21;93.55;100008.50;4986110;28;20061;-53
2023/03/22 06:30:14;;;;;;;2.10;0.90;;;;;;;12.32;92.47;99998.50;4989728;28;20129;-52
2023/03/22 06:33:03;;;;;;;1.67;1.02;;;;;;;12.28;92.95;99994.22;5002576;28;20046;-51
2023/03/22 06:35:34;;;;;;;0.60;0.60;;;;;;;12.36;92.47;99993.88;5003836;28;20033;-50
2023/03/22 06:38:00;;;;;;;1.73;0.82;;;;;;;12.47;91.95;99991.19;4980305;28;20046;-48
2023/03/22 06:40:26;;;;;;;1.40;1.13;;;;;;;12.47;91.24;100005.47;4991298;28;20037;-48
2023/03/22 06:42:53;;;;;;;2.88;1.23;;;;;;;12.48;92.14;100012.44;4999597;28;20420;-52
2023/03/22 06:45:21;;;;;;;1.60;1.02;;;;;;;12.47;92.53;100002.78;4985847;28;20087;-55
2023/03/22 06:47:49;;;;;;;2.47;1.13;;;;;;;12.35;92.46;99995.03;4996648;28;20053;-48
2023/03/22 06:50:37;;;;;;;1.63;1.15;;;;;;;12.54;91.79;100005.47;4976979;28;20038;-56
2023/03/22 06:53:08;;;;;;;2.90;1.20;;;;;;;12.64;91.06;100007.41;4980917;28;20070;-51
2023/03/22 06:55:34;;;;;;;1.90;1.00;;;;;;;12.60;92.06;100005.88;4998755;28;20540;-52
2023/03/22 06:58:09;;;;;;;2.95;1.23;;;;;;;12.78;90.45;100005.88;4990403;28;20038;-54
2023/03/22 07:00:35;;;;;;;2.17;1.08;;;;;;;12.52;91.33;100004.31;4985288;28;20427;-52
2023/03/22 07:03:02;;;;;;;2.60;1.20;;;;;;;12.65;91.48;99992.00;5009555;28;20519;-51
2023/03/22 07:05:39;;;;;;;2.70;1.10;;;;;;;12.58;91.20;100006.25;5022288;28;20120;-56
2023/03/22 07:08:05;;;;;;;1.10;0.90;;;;;;;12.36;92.13;100006.59;5026440;28;20026;-55
2023/03/22 07:10:34;;;;;;;1.88;1.35;;;;;;;12.44;92.25;100019.75;5005455;28;20044;-57
2023/03/22 07:13:01;;;;;;;1.40;0.90;;;;;;;12.49;92.63;100007.78;5025108;28;20108;-50
2023/03/22 07:15:29;;;;;;;0.80;0.68;;;;;;;12.23;92.82;99995.38;5027386;28;20113;-53
2023/03/22 07:18:06;;;;;;;1.08;0.90;;;;;;;12.47;92.83;100005.47;5025185;28;20084;-50
2023/03/22 07:20:35;;;;;;;1.98;1.35;;;;;;;12.50;92.51;99999.28;5013894;28;20030;-46
2023/03/22 07:23:01;;;;;;;1.42;0.98;;;;;;;12.51;92.39;99994.66;5018744;28;20037;-51
2023/03/22 07:25:30;;;;;;;1.27;0.77;;;;;;;12.57;92.65;99988.50;5030505;28;20452;-49
2023/03/22 07:28:10;;;;;;;2.17;1.08;;;;;;;12.66;92.88;99988.13;5021199;28;20099;-48
2023/03/22 07:30:37;;;;;;;1.10;0.85;;;;;;;12.58;92.37;99979.25;5018534;28;20109;-52
2023/03/22 07:33:03;;;;;;;2.03;1.05;;;;;;;12.61;92.45;99983.09;5023010;28;20128;-51
2023/03/22 07:35:29;;;;;;;2.40;1.40;;;;;;;12.69;91.66;99982.75;5027012;28;20065;-50
2023/03/22 07:37:55;;;;;;;1.02;0.88;;;;;;;12.62;92.49;99977.31;5023331;28;20087;-51
2023/03/22 07:40:26;;;;;;;2.13;1.25;;;;;;;12.70;92.12;99970.75;5025283;28;20372;-53
2023/03/22 07:42:53;;;;;;;2.15;1.13;;;;;;;12.71;91.96;99968.84;5030634;28;20037;-52
2023/03/22 07:45:23;;;;;;;1.77;1.00;;;;;;;12.75;91.84;99968.84;5023820;28;20041;-56
2023/03/22 07:48:14;;;;;;;;;;;;;;;12.82;91.90;99971.53;5006714;28;20041;-49
2023/03/22 07:50:54;;;;;;;2.17;1.00;;;;;;;12.88;91.45;99972.69;5021218;28;19974;-56
2023/03/22 07:53:20;;;;;;;1.25;0.80;;;;;;;12.84;91.47;99969.22;5019889;28;20038;-46
2023/03/22 07:55:46;;;;;;;2.20;1.33;;;;;;;12.87;92.02;99957.66;5020493;28;20034;-47
2023/03/22 07:58:11;;;;;;;5.72;1.05;;;;;;;12.99;91.46;99954.56;4999725;28;20171;-51
2023/03/22 08:00:37;;;;;;;2.28;1.67;;;;;;;12.81;91.53;99954.56;5000195;28;20033;-49
2023/03/22 08:03:22;;;;;;;1.80;1.33;;;;;;;12.96;92.42;99952.63;5024669;28;20522;-52
2023/03/22 08:06:03;;;;;;;1.80;1.17;;;;;;;13.07;91.55;99940.66;5016732;28;20400;-48
2023/03/22 08:08:28;;;;;;;2.35;1.50;;;;;;;12.89;91.78;99939.88;5024811;28;20087;-48
2023/03/22 08:10:54;;;;;;;4.05;1.60;;;;;;;12.96;92.62;99936.41;5023767;28;20034;-51
2023/03/22 08:13:20;;;;;;;1.65;0.98;;;;;;;12.98;92.17;99917.88;5016918;28;20036;-54
2023/03/22 08:15:45;;;;;;;1.48;1.17;;;;;;;12.90;92.10;99913.63;5023495;28;20041;-51
2023/03/22 08:18:11;;;;;;;1.40;1.10;;;;;;;12.93;92.61;99907.47;5029371;28;20053;-52
2023/03/22 08:20:39;;;;;;;1.52;1.02;;;;;;;13.03;92.04;99912.88;5025180;28;20116;-52
2023/03/22 08:23:15;;;;;;;3.92;1.63;;;;;;;13.09;91.91;99907.81;5019470;28;20064;-51
2023/03/22 08:26:09;;;;;;;1.30;1.20;;;;;;;13.26;91.38;99904.31;5010643;28;20041;-54
2023/03/22 08:28:35;;;;;;;6.43;1.77;;;;;;;13.10;91.35;99899.34;5017315;28;21207;-50
2023/03/22 08:31:00;;;;;;;2.08;1.15;;;;;;;13.19;92.58;99896.22;5024812;28;20018;-48
2023/03/22 08:33:26;;;;;;;1.52;1.27;;;;;;;13.56;91.03;99891.84;5021116;28;20152;-50
2023/03/22 08:36:03;;;;;;;3.15;1.70;;;;;;;13.54;90.23;99890.69;5008686;28;20057;-53
2023/03/22 08:38:29;;;;;;;1.67;0.82;;;;;;;13.49;90.76;99880.28;5020749;28;20048;-50
2023/03/22 08:40:58;;;;;;;1.45;1.10;;;;;;;13.61;90.37;99887.94;5024138;28;20383;-48
2023/03/22 08:43:24;;;;;;;2.50;1.00;;;;;;;13.76;89.49;99881.31;5022626;28;20057;-49
2023/03/22 08:45:50;;;;;;;3.55;1.40;;;;;;;13.93;89.13;99860.72;5022640;28;20036;-53
2023/03/22 08:48:18;;;;;;;2.17;1.23;;;;;;;13.80;88.62;99863.09;5019783;28;20024;-51
2023/03/22 08:51:08;;;;;;;6.03;1.58;;;;;;;13.90;89.23;99872.34;5016533;28;20382;-49
2023/03/22 08:53:46;;;;;;;2.10;1.55;;;;;;;13.96;88.56;99871.53;5015282;28;20120;-48
2023/03/22 08:56:37;;;;;;;2.85;1.20;;;;;;;14.40;88.43;99874.34;5019688;28;20117;-49
2023/03/22 08:59:17;;;;;;;1.65;1.00;;;;;;;14.76;86.81;99874.03;5026096;28;20496;-47
2023/03/22 09:02:08;;;;;;;1.58;1.42;;;;;;;14.57;85.86;99863.75;5002855;28;20474;-50
2023/03/22 09:04:35;;;;;;;3.55;2.05;;;;;;;14.61;86.00;99867.19;5014192;28;20025;-52
2023/03/22 09:07:01;;;;;;;2.50;1.45;;;;;;;15.15;84.02;99867.06;5009493;28;20113;-49
2023/03/22 09:09:27;;;;;;;1.40;0.90;;;;;;;15.20;83.05;99865.81;5007811;28;21247;-51
2023/03/22 09:11:53;;;;;;;2.60;1.50;;;;;;;15.57;81.85;99863.06;5010889;28;20025;-50
2023/03/22 09:14:19;;;;;;;1.75;0.98;;;;;;;15.93;81.45;99864.13;5014934;28;20080;-48
2023/03/22 09:16:46;;;;;;;1.98;0.95;;;;;;;15.80;80.57;99860.44;5019431;28;20472;-53
2023/03/22 09:19:12;;;;;;;2.80;1.75;;;;;;;16.17;79.28;99860.28;4999150;28;20040;-48
2023/03/22 09:21:39;;;;;;;1.50;1.02;;;;;;;16.31;77.46;99866.66;5020617;28;20053;-49
2023/03/22 09:24:27;;;;;;;1.27;0.68;;;;;;;15.98;78.66;99860.19;5017092;28;20047;-49
2023/03/22 09:26:57;;;;;;;4.47;0.55;;;;;;;16.11;79.82;99856.50;5006606;28;20030;-51
2023/03/22 09:29:23;;;;;;;1.98;1.23;;;;;;;16.44;78.40;99856.75;5012426;28;20113;-50
2023/03/22 09:31:49;;;;;;;1.92;1.33;;;;;;;16.43;75.67;99847.84;5009871;28;20380;-52
2023/03/22 09:34:25;;;;;;;2.13;1.23;;;;;;;16.35;75.93;99851.06;5011311;28;20034;-56
2023/03/22 09:36:51;;;;;;;2.47;0.93;;;;;;;16.41;75.72;99846.72;5036528;28;20037;-51
2023/03/22 09:39:21;;;;;;;1.42;1.05;;;;;;;16.49;74.02;99843.47;5005604;28;20160;-50
2023/03/22 09:41:58;;;;;;;1.75;0.75;;;;;;;16.89;74.12;99838.91;5017138;28;20026;-46
2023/03/22 09:44:37;;;;;;;4.00;1.10;;;;;;;17.38;71.48;99848.78;5010119;28;20046;-54
2023/03/22 09:47:16;;;;;;;2.03;0.98;;;;;;;17.71;69.75;99841.53;5016269;28;20037;-53
2023/03/22 09:49:46;;;;;;;0.50;0.50;;;;;;;17.68;68.85;99848.59;5011593;28;20067;-53
2023/03/22 09:52:14;;;;;;;1.80;0.98;;;;;;;17.42;68.06;99829.69;5019831;28;21331;-55
2023/03/22 09:54:43;;;;;;;0.55;0.38;;;;;;;17.23;69.31;99830.47;5002601;28;20676;-46
2023/03/22 09:57:31;;;;;;;2.55;0.80;;;;;;;17.00;68.13;99823.91;5002752;28;20072;-54
2023/03/22 10:00:23;;;;;;;1.25;0.68;;;;;;;16.60;68.75;99832.44;5013327;28;20439;-48
2023/03/22 10:02:57;;;;;;;1.02;0.93;;;;;;;16.83;68.94;99827.72;5001453;28;20061;-53
2023/03/22 10:06:02;;;;;;;3.75;1.17;;;;;;;16.74;69.36;99822.06;5006268;28;20091;-51
2023/03/22 10:08:53;;;;;;;0.73;0.50;;;;;;;16.72;68.99;99816.28;5004118;28;20044;-47
2023/03/22 10:11:31;;;;;;;1.10;0.60;;;;;;;16.52;69.80;99826.34;5016666;28;20044;-46
2023/03/22 10:14:04;;;;;;;1.80;0.95;;;;;;;16.40;70.14;99816.03;5013939;28;20068;-48
2023/03/22 10:16:33;;;;;;;0.90;0.68;;;;;;;16.42;69.67;99810.97;5024648;28;20444;-51
2023/03/22 10:19:22;;;;;;;1.00;0.50;;;;;;;16.32;69.94;99808.44;5024323;28;20112;-47
2023/03/22 10:21:51;;;;;;;1.38;0.77;;;;;;;16.35;70.31;99788.56;5022592;28;20025;-47
2023/03/22 10:24:28;;;;;;;1.90;0.35;;;;;;;16.00;70.43;99804.28;5026375;28;20076;-49
2023/03/22 10:26:54;;;;;;;2.15;0.88;;;;;;;16.13;69.79;99797.06;5025339;28;20087;-47
2023/03/22 10:29:28;;;;;;;5.68;0.95;;;;;;;16.40;69.16;99791.56;5022164;28;20026;-47
2023/03/22 10:31:54;;;;;;;0.30;0.30;;;;;;;16.10;69.94;99803.31;5010548;28;20061;-49
2023/03/22 10:34:21;;;;;;;1.20;0.70;;;;;;;16.41;68.76;99803.22;5023565;28;20068;-47
2023/03/22 10:36:50;;;;;;;1.17;0.50;;;;;;;16.23;69.45;99827.97;5023820;28;20055;-52
2023/03/22 10:39:28;;;;;;;0.40;0.30;;;;;;;16.26;68.51;99799.97;5022892;28;20084;-47
2023/03/22 10:41:57;;;;;;;1.17;0.65;;;;;;;16.24;68.69;99821.34;5020982;28;20117;-48
2023/03/22 10:44:25;;;;;;;0.52;0.40;;;;;;;16.06;68.66;99808.06;5025157;28;20775;-51
2023/03/22 10:46:52;;;;;;;1.35;0.52;;;;;;;16.22;69.25;99808.19;5012927;28;20026;-49
2023/03/22 10:49:41;;;;;;;0.43;0.30;;;;;;;15.96;70.46;99809.00;5027901;28;20041;-47
2023/03/22 10:52:30;;;;;;;2.60;0.75;;;;;;;16.12;69.95;99806.41;5024978;28;20032;-50
2023/03/22 10:54:56;;;;;;;1.85;0.57;;;;;;;16.17;69.64;99805.16;5019789;28;20045;-51
2023/03/22 10:57:22;;;;;;;0.40;0.40;;;;;;;16.09;69.76;99812.66;5018322;28;20504;-52
2023/03/22 10:59:50;;;;;;;1.23;0.40;;;;;;;16.28;68.98;99808.47;5013789;28;20090;-48
2023/03/22 11:02:17;;;;;;;0.47;0.40;;;;;;;16.21;69.80;99809.38;5023448;28;20362;-48
2023/03/22 11:04:51;;;;;;;1.35;0.40;;;;;;;16.38;68.54;99812.19;5016715;28;20041;-47
2023/03/22 11:07:29;;;;;;;0.43;0.20;;;;;;;16.63;67.00;99807.88;5019871;28;20033;-50
2023/03/22 11:10:06;;;;;;;0.47;0.40;;;;;;;16.63;66.15;99816.03;5023813;28;20033;-47
2023/03/22 11:12:36;;;;;;;3.38;0.68;;;;;;;16.80;65.82;99806.03;5021114;28;20117;-48
2023/03/22 11:15:03;;;;;;;0.50;0.38;;;;;;;16.62;65.65;99809.09;5030942;28;20045;-54
2023/03/22 11:17:29;;;;;;;0.85;0.40;;;;;;;16.54;64.87;99804.19;5019176;28;20044;-48
2023/03/22 11:20:00;;;;;;;1.83;0.40;;;;;;;16.57;64.39;99803.38;5017670;28;20029;-48
2023/03/22 11:22:35;;;;;;;0.38;0.20;;;;;;;16.60;64.47;99808.72;5031932;28;20029;-48
2023/03/22 11:25:02;;;;;;;0.95;0.38;;;;;;;16.53;66.06;99821.69;5027533;28;20080;-49
2023/03/22 11:27:30;;;;;;;0.60;0.28;;;;;;;16.50;65.22;99800.75;5028295;28;20053;-48
2023/03/22 11:30:20;;;;;;;0.22;0.22;;;;;;;16.47;65.77;99807.00;5031526;28;20569;-48
2023/03/22 11:32:47;;;;;;;0.97;0.70;;;;;;;16.42;63.64;99810.19;5022390;28;20105;-47
2023/03/22 11:35:14;;;;;;;0.30;0.30;;;;;;;16.61;63.28;99809.47;5027428;28;20029;-46
2023/03/22 11:37:45;;;;;;;0.63;0.60;;;;;;;16.49;64.32;99801.94;5021613;28;20029;-48
2023/03/22 11:40:17;;;;;;;2.75;0.80;;;;;;;16.72;62.48;99818.22;5020644;28;20038;-48
2023/03/22 11:42:43;;;;;;;2.10;0.40;;;;;;;16.70;62.48;99807.78;5024097;28;20471;-47
2023/03/22 11:45:15;;;;;;;0.32;0.32;;;;;;;16.74;61.20;99808.47;5021721;28;20030;-50
2023/03/22 11:47:40;;;;;;;;;;;;;;;16.82;61.52;99820.00;5018066;28;20451;-48
2023/03/22 11:50:11;;;;;;;1.00;0.52;;;;;;;16.84;61.46;99817.63;5027826;28;19913;-48
2023/03/22 11:52:37;;;;;;;0.50;0.40;;;;;;;16.65;61.50;99821.84;5026659;28;20095;-48
2023/03/22 11:55:03;;;;;;;0.70;0.38;;;;;;;16.71;62.36;99819.41;5027679;28;20033;-48